Time;durP1;ratioP1;P1;durP2;ratioP2;P2;SDS_P1;SDS_P2;PMS_P1;PMS_P2;Temp;Humidity;BMP_temperature;BMP_pressure;BME280_temperature;BME280_humidity;BME280_pressure;Samples;Min_cycle;Max_cycle;Signal;HPM_P1;HPM_P2
2024/02/28 00:00:18;;;;;;;16.23;10.57;;;;;;;10.15;60.25;99887.13;4145300;28;20273;-70
2024/02/28 00:02:18;;;;;;;16.85;11.27;;;;;;;10.12;60.16;99887.41;4145805;28;20030;-70
2024/02/28 00:04:19;;;;;;;17.05;10.57;;;;;;;10.10;60.44;99893.91;4146148;28;20518;-70
2024/02/28 00:06:19;;;;;;;17.45;11.13;;;;;;;10.04;60.53;99889.97;4146207;28;20041;-70
2024/02/28 00:08:21;;;;;;;14.52;10.13;;;;;;;10.17;60.12;99886.97;4146305;28;20572;-70
2024/02/28 00:10:21;;;;;;;13.88;9.98;;;;;;;10.20;60.05;99891.22;4146372;28;20033;-70
2024/02/28 00:12:22;;;;;;;14.88;10.88;;;;;;;9.95;60.55;99885.50;4145657;28;20382;-70
2024/02/28 00:14:22;;;;;;;17.40;12.02;;;;;;;9.95;60.64;99893.53;4146315;28;20032;-70
2024/02/28 00:16:23;;;;;;;17.00;11.07;;;;;;;10.06;60.39;99893.34;4146036;28;20025;-69
2024/02/28 00:18:23;;;;;;;17.17;11.45;;;;;;;10.15;60.05;99897.81;4146341;28;20504;-70
2024/02/28 00:20:27;;;;;;;16.77;11.23;;;;;;;10.06;60.11;99892.53;4146205;28;20026;-69
2024/02/28 00:22:27;;;;;;;14.80;11.07;;;;;;;10.05;60.21;99902.34;4146641;28;20066;-71
2024/02/28 00:24:27;;;;;;;16.65;11.82;;;;;;;10.09;60.13;99902.91;4147842;28;20030;-69
2024/02/28 00:26:28;;;;;;;17.83;11.48;;;;;;;10.18;59.88;99901.19;4148732;28;20096;-70
2024/02/28 00:28:28;;;;;;;14.20;9.90;;;;;;;10.22;59.83;99903.44;4148145;28;20109;-69
2024/02/28 00:30:29;;;;;;;16.63;11.50;;;;;;;10.15;60.17;99894.31;4149229;28;20273;-70
2024/02/28 00:32:29;;;;;;;13.93;9.75;;;;;;;10.25;59.75;99902.28;4148723;28;20036;-72
2024/02/28 00:34:30;;;;;;;13.10;9.40;;;;;;;10.37;59.58;99905.59;4149127;28;20425;-69
2024/02/28 00:36:31;;;;;;;16.05;11.18;;;;;;;10.13;59.96;99905.13;4148880;28;20433;-70
2024/02/28 00:38:31;;;;;;;15.73;12.57;;;;;;;10.07;60.39;99910.19;4148888;28;20057;-69
2024/02/28 00:40:32;;;;;;;17.17;11.70;;;;;;;10.01;60.41;99911.66;4148596;28;20042;-70
2024/02/28 00:42:32;;;;;;;16.45;11.95;;;;;;;10.20;60.01;99915.25;4148678;28;20021;-70
2024/02/28 00:44:33;;;;;;;14.65;10.93;;;;;;;10.23;59.82;99918.47;4149178;28;20038;-70
2024/02/28 00:46:34;;;;;;;19.35;12.05;;;;;;;10.22;59.84;99918.59;4147984;28;20038;-70
2024/02/28 00:48:35;;;;;;;19.65;12.38;;;;;;;10.14;59.99;99916.69;4147763;28;20494;-69
2024/02/28 00:50:35;;;;;;;18.88;12.25;;;;;;;10.08;60.34;99915.41;4148927;28;20490;-70
2024/02/28 00:52:35;;;;;;;16.35;11.65;;;;;;;10.10;60.33;99910.78;4155175;28;20227;-71
2024/02/28 00:54:36;;;;;;;18.20;12.45;;;;;;;9.72;60.89;99922.38;4151293;28;20025;-70
2024/02/28 00:56:37;;;;;;;18.75;13.13;;;;;;;9.70;61.07;99924.31;4163935;28;20087;-70
2024/02/28 00:58:38;;;;;;;20.40;13.23;;;;;;;9.79;61.01;99927.00;4159544;28;20037;-69
2024/02/28 01:00:39;;;;;;;17.70;12.27;;;;;;;9.87;60.81;99925.44;4151928;28;20026;-71
2024/02/28 01:02:41;;;;;;;17.15;12.20;;;;;;;9.96;60.51;99924.56;4156804;28;20022;-71
2024/02/28 01:04:41;;;;;;;15.65;10.70;;;;;;;10.06;59.82;99916.56;4157025;28;20042;-69
2024/02/28 01:06:42;;;;;;;19.58;12.60;;;;;;;9.72;59.93;99925.03;4156691;28;20053;-71
2024/02/28 01:08:43;;;;;;;18.67;13.60;;;;;;;9.57;60.28;99925.47;4156745;28;20022;-71
2024/02/28 01:10:44;;;;;;;17.92;12.77;;;;;;;9.58;60.25;99931.66;4156419;28;20030;-71
2024/02/28 01:12:44;;;;;;;;;;;;;;;9.66;59.84;99929.13;4156964;28;20059;-70
2024/02/28 01:14:44;;;;;;;17.77;12.43;;;;;;;9.70;59.85;99935.00;4163705;28;19975;-71
2024/02/28 01:16:45;;;;;;;16.83;11.98;;;;;;;9.70;59.77;99937.69;4156469;28;20029;-71
2024/02/28 01:18:46;;;;;;;16.98;12.07;;;;;;;9.78;60.00;99928.00;4156490;28;20052;-70
2024/02/28 01:20:47;;;;;;;18.52;12.38;;;;;;;9.86;59.41;99932.63;4155562;28;20025;-70
2024/02/28 01:22:47;;;;;;;15.55;11.75;;;;;;;9.95;59.21;99938.91;4155367;28;20036;-72
2024/02/28 01:24:48;;;;;;;16.63;11.90;;;;;;;9.83;59.71;99941.72;4164331;28;20073;-71
2024/02/28 01:26:48;;;;;;;19.92;13.23;;;;;;;9.72;60.03;99939.25;4154982;28;20035;-70
2024/02/28 01:28:49;;;;;;;17.73;11.77;;;;;;;9.86;60.03;99935.28;4164720;28;20037;-71
2024/02/28 01:30:50;;;;;;;;;;;;;;;9.84;60.30;99931.91;4156535;28;20347;-71
2024/02/28 01:32:50;;;;;;;17.83;11.93;;;;;;;9.73;60.10;99929.41;4155423;28;20007;-70
2024/02/28 01:34:51;;;;;;;18.52;13.02;;;;;;;9.59;60.85;99931.50;4163622;28;20026;-69
2024/02/28 01:36:51;;;;;;;22.03;13.27;;;;;;;9.63;60.94;99932.09;4156226;28;20104;-70
2024/02/28 01:38:52;;;;;;;18.02;12.32;;;;;;;9.59;61.05;99936.84;4148389;28;20318;-69
2024/02/28 01:40:52;;;;;;;17.95;12.38;;;;;;;9.71;60.57;99928.69;4148339;28;20084;-70
2024/02/28 01:42:53;;;;;;;18.92;12.43;;;;;;;9.66;60.92;99926.44;4148161;28;20494;-71
2024/02/28 01:44:54;;;;;;;20.45;13.20;;;;;;;9.67;60.94;99933.47;4148152;28;20030;-71
2024/02/28 01:46:56;;;;;;;16.85;11.48;;;;;;;9.75;60.66;99922.91;4147660;28;20097;-71
2024/02/28 01:48:59;;;;;;;19.42;12.90;;;;;;;9.61;61.12;99918.03;4147777;28;20120;-71
2024/02/28 01:50:59;;;;;;;19.08;12.02;;;;;;;9.56;61.02;99920.25;4148482;28;20030;-70
2024/02/28 01:53:01;;;;;;;18.10;12.68;;;;;;;9.71;60.84;99916.19;4154044;28;20107;-70
2024/02/28 01:55:02;;;;;;;15.65;11.10;;;;;;;9.71;60.64;99910.88;4148714;28;20029;-70
2024/02/28 01:57:03;;;;;;;14.93;10.52;;;;;;;9.84;60.39;99913.22;4155933;28;20029;-70
2024/02/28 01:59:04;;;;;;;16.83;11.48;;;;;;;9.82;60.51;99917.84;4155838;28;20030;-70
2024/02/28 02:01:06;;;;;;;14.18;10.90;;;;;;;9.89;60.43;99923.47;4155791;28;20037;-70
2024/02/28 02:03:07;;;;;;;12.57;9.35;;;;;;;9.92;60.35;99918.69;4154225;28;20359;-70
2024/02/28 02:05:09;;;;;;;11.25;8.27;;;;;;;9.91;60.29;99922.34;4164009;28;20044;-70
2024/02/28 02:07:09;;;;;;;16.23;10.63;;;;;;;9.82;60.49;99929.38;4163575;28;20034;-69
2024/02/28 02:09:10;;;;;;;16.25;11.10;;;;;;;9.73;60.91;99927.56;4164157;28;20034;-70
2024/02/28 02:11:12;;;;;;;14.50;10.35;;;;;;;9.75;60.86;99933.59;4164404;28;20025;-69
2024/02/28 02:13:13;;;;;;;13.93;9.02;;;;;;;9.76;60.91;99932.63;4163732;28;20025;-70
2024/02/28 02:15:13;;;;;;;12.38;9.07;;;;;;;9.75;60.83;99936.28;4164351;28;20021;-70
2024/02/28 02:17:14;;;;;;;12.70;8.43;;;;;;;9.75;60.64;99938.09;4163093;28;20025;-71
2024/02/28 02:19:14;;;;;;;12.55;8.43;;;;;;;9.74;60.90;99939.91;4163976;28;20067;-70
2024/02/28 02:21:20;;;;;;;11.80;7.53;;;;;;;9.77;60.71;99944.97;4163307;28;20060;-70
2024/02/28 02:23:20;;;;;;;12.43;8.40;;;;;;;9.74;60.84;99945.25;4147998;28;20108;-70
2024/02/28 02:25:21;;;;;;;17.65;9.70;;;;;;;9.65;60.98;99943.44;4152315;28;20057;-71
2024/02/28 02:27:25;;;;;;;12.98;9.00;;;;;;;9.61;61.19;99952.72;4164796;28;20018;-71
2024/02/28 02:29:27;;;;;;;13.43;8.73;;;;;;;9.60;61.13;99956.38;4165075;28;20026;-71
2024/02/28 02:31:28;;;;;;;12.63;8.65;;;;;;;9.58;61.12;99961.00;4164633;28;20036;-71
2024/02/28 02:33:28;;;;;;;13.63;8.77;;;;;;;9.60;61.06;99969.72;4163604;28;20029;-70
2024/02/28 02:35:28;;;;;;;12.38;8.88;;;;;;;9.62;60.97;99976.59;4165663;28;20025;-71
2024/02/28 02:37:30;;;;;;;11.70;8.00;;;;;;;9.64;61.00;99979.13;4164546;28;20265;-69
2024/02/28 02:39:31;;;;;;;13.20;8.60;;;;;;;9.65;60.93;99978.13;4155177;28;20026;-70
2024/02/28 02:41:31;;;;;;;12.77;8.80;;;;;;;9.66;60.94;99983.34;4133882;28;20026;-69
2024/02/28 02:43:31;;;;;;;11.00;7.63;;;;;;;9.67;60.92;99981.53;4143597;28;20057;-71
2024/02/28 02:45:32;;;;;;;15.15;9.35;;;;;;;9.57;61.08;99983.34;4138543;28;20497;-71
2024/02/28 02:47:32;;;;;;;16.23;9.07;;;;;;;9.45;61.42;99993.31;4130677;28;20034;-69
2024/02/28 02:49:32;;;;;;;14.80;9.83;;;;;;;9.53;61.53;99993.44;4151255;28;20265;-69
2024/02/28 02:51:33;;;;;;;12.03;8.40;;;;;;;9.45;61.25;99990.63;4150616;28;20305;-71
2024/02/28 02:53:33;;;;;;;14.63;8.65;;;;;;;9.43;61.23;100001.47;4154039;28;20034;-70
2024/02/28 02:55:33;;;;;;;13.75;9.43;;;;;;;9.25;61.60;100003.94;4151303;28;20033;-69
2024/02/28 02:57:35;;;;;;;13.30;8.57;;;;;;;9.24;61.64;100004.09;4147613;28;20099;-70
2024/02/28 02:59:36;;;;;;;17.05;10.35;;;;;;;9.19;61.72;100008.00;4155068;28;20260;-70
2024/02/28 03:01:37;;;;;;;15.75;9.57;;;;;;;9.25;61.48;100019.13;4154833;28;20117;-70
2024/02/28 03:03:38;;;;;;;15.20;10.90;;;;;;;9.11;61.74;100026.50;4154565;28;20112;-70
2024/02/28 03:05:38;;;;;;;15.70;8.75;;;;;;;9.07;61.74;100025.09;4152582;28;20057;-70
2024/02/28 03:07:39;;;;;;;16.07;9.87;;;;;;;8.94;62.08;100033.31;4151445;28;20029;-69
2024/02/28 03:09:39;;;;;;;15.40;10.10;;;;;;;9.07;61.90;100029.59;4159218;28;20281;-71
2024/02/28 03:11:39;;;;;;;13.83;10.03;;;;;;;8.89;62.24;100030.22;4157086;28;20089;-71
2024/02/28 03:13:40;;;;;;;17.50;10.40;;;;;;;8.77;62.52;100029.50;4158014;28;20261;-71
2024/02/28 03:15:40;;;;;;;13.40;9.73;;;;;;;8.74;62.48;100037.75;4158552;28;20276;-70
2024/02/28 03:17:41;;;;;;;15.20;9.02;;;;;;;8.63;62.77;100035.16;4157268;28;20026;-70
2024/02/28 03:19:42;;;;;;;15.25;9.52;;;;;;;8.62;62.69;100034.31;4155393;28;20382;-69
2024/02/28 03:21:42;;;;;;;14.88;9.65;;;;;;;8.62;62.75;100033.47;4166811;28;20112;-71
2024/02/28 03:23:44;;;;;;;16.63;11.10;;;;;;;8.64;62.75;100047.50;4168378;28;20030;-71
2024/02/28 03:25:45;;;;;;;15.43;10.10;;;;;;;8.62;62.80;100050.31;4167146;28;20276;-71
2024/02/28 03:27:45;;;;;;;15.30;10.07;;;;;;;8.49;62.94;100050.53;4166265;28;20515;-70
2024/02/28 03:29:45;;;;;;;18.83;10.23;;;;;;;8.48;63.09;100048.84;4167603;28;20067;-70
2024/02/28 03:31:46;;;;;;;15.65;10.32;;;;;;;8.41;63.19;100058.25;4166920;28;20072;-70
2024/02/28 03:33:46;;;;;;;15.55;10.98;;;;;;;8.25;63.65;100056.91;4153149;28;20117;-70
2024/02/28 03:35:47;;;;;;;16.70;10.63;;;;;;;8.27;63.58;100057.63;4131938;28;20552;-70
2024/02/28 03:37:47;;;;;;;15.98;10.27;;;;;;;8.31;63.41;100060.06;4132355;28;20475;-71
2024/02/28 03:39:48;;;;;;;15.55;9.75;;;;;;;8.22;63.58;100057.16;4130353;28;20027;-70
2024/02/28 03:41:48;;;;;;;15.67;10.70;;;;;;;8.17;63.57;100063.88;4129757;28;20033;-71
2024/02/28 03:43:49;;;;;;;16.40;11.53;;;;;;;8.21;63.52;100058.16;4130200;28;20285;-70
2024/02/28 03:45:50;;;;;;;14.60;10.30;;;;;;;8.12;63.96;100065.09;4130389;28;20080;-70
2024/02/28 03:47:51;;;;;;;16.10;10.65;;;;;;;8.13;63.84;100063.25;4130466;28;20434;-71
2024/02/28 03:49:52;;;;;;;14.95;10.75;;;;;;;8.05;64.08;100074.56;4130294;28;20030;-70
2024/02/28 03:51:52;;;;;;;16.63;10.13;;;;;;;8.11;63.96;100073.22;4131490;28;20364;-72
2024/02/28 03:53:53;;;;;;;17.53;11.40;;;;;;;8.05;64.09;100079.03;4154718;28;20097;-71
2024/02/28 03:55:53;;;;;;;17.70;10.53;;;;;;;8.18;63.67;100085.03;4154798;28;20351;-70
2024/02/28 03:57:54;;;;;;;14.57;9.63;;;;;;;8.14;63.87;100086.25;4156466;28;20399;-70
2024/02/28 03:59:54;;;;;;;14.90;10.07;;;;;;;8.14;63.75;100080.09;4157530;28;20028;-71
2024/02/28 04:01:55;;;;;;;13.27;9.20;;;;;;;8.21;63.62;100083.94;4156202;28;20474;-71
2024/02/28 04:03:55;;;;;;;15.30;10.53;;;;;;;8.01;64.10;100090.94;4157445;28;20038;-71
2024/02/28 04:05:55;;;;;;;18.95;10.82;;;;;;;7.91;64.53;100091.69;4157807;28;20033;-71
2024/02/28 04:07:56;;;;;;;16.48;12.02;;;;;;;7.92;64.69;100097.84;4157773;28;20112;-70
2024/02/28 04:09:56;;;;;;;16.70;11.13;;;;;;;8.05;64.35;100098.53;4157868;28;20025;-71
2024/02/28 04:11:57;;;;;;;12.03;9.13;;;;;;;8.11;64.11;100102.50;4157346;28;20038;-71
2024/02/28 04:13:57;;;;;;;16.43;11.20;;;;;;;8.02;64.48;100103.28;4156206;28;20443;-71
2024/02/28 04:15:57;;;;;;;15.03;10.43;;;;;;;8.10;64.15;100106.97;4157252;28;20276;-71
2024/02/28 04:17:58;;;;;;;16.47;10.47;;;;;;;8.14;64.08;100104.06;4157239;28;20763;-71
2024/02/28 04:19:58;;;;;;;13.88;9.63;;;;;;;8.18;63.80;100113.47;4162219;28;20037;-70
2024/02/28 04:21:59;;;;;;;16.20;10.60;;;;;;;8.15;63.84;100101.28;4165290;28;20033;-70
2024/02/28 04:23:59;;;;;;;15.83;10.93;;;;;;;8.19;63.89;100104.50;4163009;28;20044;-71
2024/02/28 04:25:59;;;;;;;16.63;10.83;;;;;;;8.15;63.96;100103.94;4165619;28;20268;-70
2024/02/28 04:28:00;;;;;;;16.73;11.75;;;;;;;8.03;64.53;100115.63;4165322;28;20029;-70
2024/02/28 04:30:00;;;;;;;17.50;12.40;;;;;;;8.01;64.37;100106.91;4165697;28;20075;-71
2024/02/28 04:32:01;;;;;;;17.08;12.55;;;;;;;7.92;64.84;100113.81;4164127;28;20496;-70
2024/02/28 04:34:01;;;;;;;15.73;10.52;;;;;;;8.05;64.79;100113.66;4165373;28;20056;-71
2024/02/28 04:36:02;;;;;;;16.37;10.60;;;;;;;8.18;63.91;100116.13;4165964;28;20056;-70
2024/02/28 04:38:03;;;;;;;18.50;11.90;;;;;;;8.10;64.04;100122.13;4166010;28;20413;-70
2024/02/28 04:40:04;;;;;;;14.63;9.90;;;;;;;8.10;64.08;100128.28;4165917;28;20064;-70
2024/02/28 04:42:05;;;;;;;18.25;12.00;;;;;;;8.02;64.37;100128.06;4165167;28;20025;-71
2024/02/28 04:44:06;;;;;;;16.10;10.55;;;;;;;8.12;64.09;100125.50;4165632;28;20493;-70
2024/02/28 04:46:06;;;;;;;18.05;12.57;;;;;;;8.04;64.24;100123.47;4165979;28;20030;-71
2024/02/28 04:48:07;;;;;;;17.65;11.07;;;;;;;8.16;63.93;100126.94;4165834;28;20382;-69
2024/02/28 04:50:09;;;;;;;16.70;11.52;;;;;;;8.15;64.04;100129.72;4165647;28;20040;-71
2024/02/28 04:52:09;;;;;;;16.05;10.30;;;;;;;8.23;63.81;100133.44;4166341;28;20018;-70
2024/02/28 04:54:10;;;;;;;17.83;11.27;;;;;;;8.15;64.14;100145.72;4154668;28;20115;-69
2024/02/28 04:56:10;;;;;;;17.90;12.17;;;;;;;8.05;64.44;100141.13;4161436;28;20037;-70
2024/02/28 04:58:11;;;;;;;14.87;10.90;;;;;;;8.17;64.39;100139.28;4159859;28;20747;-71
2024/02/28 05:00:12;;;;;;;14.15;9.50;;;;;;;8.27;63.85;100142.88;4158636;28;20264;-70
2024/02/28 05:02:13;;;;;;;14.82;9.70;;;;;;;8.24;63.90;100151.09;4155406;28;20363;-69
2024/02/28 05:04:14;;;;;;;16.85;10.68;;;;;;;8.30;63.89;100149.75;4156311;28;20050;-71
2024/02/28 05:06:16;;;;;;;16.80;11.35;;;;;;;8.27;63.97;100150.84;4155756;28;20120;-70
2024/02/28 05:08:19;;;;;;;16.67;10.73;;;;;;;8.26;63.94;100146.50;4156699;28;20039;-70
2024/02/28 05:10:20;;;;;;;14.32;10.48;;;;;;;8.36;63.81;100151.06;4155674;28;20363;-70
2024/02/28 05:12:20;;;;;;;17.07;11.93;;;;;;;8.32;63.85;100149.63;4156811;28;20032;-70
2024/02/28 05:14:20;;;;;;;15.55;10.77;;;;;;;8.36;63.91;100146.56;4165180;28;20979;-70
2024/02/28 05:16:21;;;;;;;14.10;10.23;;;;;;;8.41;63.61;100146.19;4164951;28;20124;-69
2024/02/28 05:18:22;;;;;;;17.47;10.97;;;;;;;8.35;63.93;100157.34;4165002;28;20753;-70
2024/02/28 05:20:22;;;;;;;17.75;10.73;;;;;;;8.39;63.78;100142.81;4164247;28;20347;-70
2024/02/28 05:22:23;;;;;;;16.35;10.45;;;;;;;8.37;63.80;100145.59;4165173;28;20021;-70
2024/02/28 05:24:23;;;;;;;15.83;10.63;;;;;;;8.40;63.80;100150.69;4162397;28;20116;-69
2024/02/28 05:26:24;;;;;;;15.82;10.32;;;;;;;8.45;63.50;100162.78;4164979;28;20033;-69
2024/02/28 05:28:25;;;;;;;16.85;11.65;;;;;;;8.37;63.76;100155.41;4164655;28;20084;-70
2024/02/28 05:30:25;;;;;;;19.05;12.02;;;;;;;8.37;63.84;100160.75;4165013;28;20025;-69
2024/02/28 05:32:26;;;;;;;17.30;12.20;;;;;;;8.34;63.96;100158.34;4164715;28;20116;-71
2024/02/28 05:34:26;;;;;;;17.20;12.10;;;;;;;8.32;63.88;100157.59;4165971;28;20088;-70
2024/02/28 05:36:29;;;;;;;17.40;11.50;;;;;;;8.35;63.92;100160.03;4163154;28;20033;-70
2024/02/28 05:38:30;;;;;;;19.42;13.55;;;;;;;8.26;64.10;100159.81;4164426;28;20021;-70
2024/02/28 05:40:31;;;;;;;20.73;13.85;;;;;;;8.11;64.43;100164.59;4163362;28;20056;-69
2024/02/28 05:42:31;;;;;;;20.77;14.13;;;;;;;8.05;64.74;100162.44;4164148;28;20026;-69
2024/02/28 05:44:31;;;;;;;20.07;13.73;;;;;;;8.09;64.64;100163.03;4164362;28;20079;-70
2024/02/28 05:46:32;;;;;;;19.90;13.20;;;;;;;8.03;64.79;100164.38;4162938;28;20025;-70
2024/02/28 05:48:33;;;;;;;25.83;15.82;;;;;;;7.86;65.14;100172.88;4164465;28;20104;-70
2024/02/28 05:50:33;;;;;;;21.88;14.02;;;;;;;7.96;65.13;100174.69;4164706;28;20105;-70
2024/02/28 05:52:33;;;;;;;23.10;14.03;;;;;;;7.91;65.27;100176.00;4158909;28;20092;-69
2024/02/28 05:54:34;;;;;;;23.60;15.90;;;;;;;7.85;65.37;100180.00;4162994;28;20108;-71
2024/02/28 05:56:34;;;;;;;21.60;15.10;;;;;;;7.94;65.26;100175.78;4157294;28;20275;-69
2024/02/28 05:58:35;;;;;;;20.93;15.27;;;;;;;7.89;65.42;100172.63;4156715;28;20106;-70
2024/02/28 06:00:35;;;;;;;21.25;13.35;;;;;;;7.88;65.58;100174.44;4156613;28;20744;-69
2024/02/28 06:02:37;;;;;;;22.65;15.65;;;;;;;7.96;65.41;100173.84;4156182;28;20060;-71
2024/02/28 06:04:40;;;;;;;23.45;15.68;;;;;;;7.96;65.24;100169.34;4156587;28;20121;-71
2024/02/28 06:06:41;;;;;;;23.08;15.27;;;;;;;8.00;65.34;100155.78;4157367;28;20049;-69
2024/02/28 06:08:43;;;;;;;22.10;15.35;;;;;;;7.98;65.32;100166.59;4160174;28;20370;-69
2024/02/28 06:10:46;;;;;;;20.98;13.88;;;;;;;8.05;65.16;100164.25;4164525;28;20031;-70
2024/02/28 06:12:46;;;;;;;21.08;14.70;;;;;;;8.01;65.34;100170.81;4164239;28;20022;-70
2024/02/28 06:14:47;;;;;;;24.48;15.70;;;;;;;7.97;65.33;100176.38;4164491;28;20029;-70
2024/02/28 06:16:47;;;;;;;30.65;15.35;;;;;;;8.07;65.13;100180.94;4163852;28;20481;-69
2024/02/28 06:18:48;;;;;;;21.27;14.27;;;;;;;8.08;64.97;100183.47;4166682;28;20021;-70
2024/02/28 06:20:49;;;;;;;22.98;14.95;;;;;;;8.05;65.18;100182.88;4165435;28;20048;-68
2024/02/28 06:22:49;;;;;;;27.50;16.02;;;;;;;8.02;65.38;100180.50;4159122;28;20029;-70
2024/02/28 06:24:50;;;;;;;23.13;15.05;;;;;;;8.06;65.27;100181.91;4159268;28;20036;-68
2024/02/28 06:26:51;;;;;;;23.88;15.80;;;;;;;8.12;65.12;100189.41;4161136;28;20101;-70
2024/02/28 06:29:04;;;;;;;24.73;16.20;;;;;;;8.15;64.94;100205.13;4167831;28;20051;-70
2024/02/28 06:31:11;;;;;;;23.15;15.45;;;;;;;8.14;64.92;100199.94;4156954;28;20025;-70
2024/02/28 06:33:14;;;;;;;22.25;14.65;;;;;;;8.22;64.61;100211.63;4155901;28;20022;-70
2024/02/28 06:35:14;;;;;;;20.77;13.98;;;;;;;8.27;64.66;100204.13;4155828;28;20406;-70
2024/02/28 06:37:15;;;;;;;22.87;14.13;;;;;;;8.27;64.56;100206.78;4155778;28;20065;-70
2024/02/28 06:39:16;;;;;;;21.17;13.70;;;;;;;8.31;64.52;100214.53;4162462;28;20326;-70
2024/02/28 06:41:16;;;;;;;20.02;13.32;;;;;;;8.41;64.24;100207.44;4164120;28;20168;-71
2024/02/28 06:43:17;;;;;;;20.70;14.20;;;;;;;8.35;64.41;100211.50;4163251;28;20033;-70
2024/02/28 06:45:17;;;;;;;20.67;14.35;;;;;;;8.37;64.29;100214.03;4163516;28;20538;-70
2024/02/28 06:47:20;;;;;;;20.80;14.07;;;;;;;8.45;64.14;100216.91;4163629;28;20024;-70
2024/02/28 06:49:21;;;;;;;22.27;13.68;;;;;;;8.51;64.07;100218.25;4163602;28;20478;-70
2024/02/28 06:51:21;;;;;;;22.75;13.55;;;;;;;8.53;64.03;100225.13;4163975;28;20067;-69
2024/02/28 06:53:22;;;;;;;28.67;16.38;;;;;;;8.53;64.06;100226.97;4158212;28;20037;-70
2024/02/28 06:55:22;;;;;;;21.47;14.33;;;;;;;8.50;64.25;100225.38;4156069;28;20028;-69
2024/02/28 06:57:22;;;;;;;24.83;15.07;;;;;;;8.51;64.08;100231.56;4155106;28;20031;-71
2024/02/28 06:59:23;;;;;;;21.73;13.55;;;;;;;8.51;63.94;100237.72;4155457;28;20091;-70
2024/02/28 07:01:23;;;;;;;24.52;15.77;;;;;;;8.46;64.20;100236.38;4155290;28;20025;-69
2024/02/28 07:03:24;;;;;;;26.48;15.38;;;;;;;8.43;64.19;100238.34;4147717;28;20026;-69
2024/02/28 07:05:24;;;;;;;30.27;16.63;;;;;;;8.31;64.62;100252.66;4155418;28;20029;-71
2024/02/28 07:07:25;;;;;;;24.75;16.20;;;;;;;8.20;64.81;100260.69;4154244;28;20798;-69
2024/02/28 07:09:29;;;;;;;24.15;16.10;;;;;;;8.31;64.48;100252.66;4155131;28;20072;-71
2024/02/28 07:11:30;;;;;;;24.55;15.23;;;;;;;8.43;64.03;100256.13;4155120;28;20021;-69
2024/02/28 07:13:30;;;;;;;20.90;14.52;;;;;;;8.44;64.03;100252.50;4155839;28;20389;-69
2024/02/28 07:15:31;;;;;;;20.13;13.95;;;;;;;8.54;63.79;100260.63;4154922;28;20108;-70
2024/02/28 07:17:31;;;;;;;19.38;12.90;;;;;;;8.62;63.45;100259.97;4155672;28;20108;-69
2024/02/28 07:19:32;;;;;;;17.35;12.00;;;;;;;8.64;63.35;100258.03;4155213;28;20481;-70
2024/02/28 07:21:33;;;;;;;23.85;15.40;;;;;;;8.52;63.79;100257.25;4163448;28;20401;-70
2024/02/28 07:23:33;;;;;;;21.15;14.25;;;;;;;8.51;63.83;100259.03;4131204;28;20418;-70
2024/02/28 07:25:34;;;;;;;24.45;16.40;;;;;;;8.24;64.49;100262.97;4130402;28;20034;-69
2024/02/28 07:27:34;;;;;;;23.48;16.88;;;;;;;8.27;64.61;100267.19;4132762;28;20030;-70
2024/02/28 07:29:36;;;;;;;27.23;15.80;;;;;;;8.27;64.49;100276.03;4132084;28;20026;-70
2024/02/28 07:31:37;;;;;;;22.52;14.73;;;;;;;8.22;64.76;100275.56;4132905;28;20034;-70
2024/02/28 07:33:39;;;;;;;31.08;15.77;;;;;;;8.23;64.44;100281.75;4138571;28;20037;-69
2024/02/28 07:35:47;;;;;;;24.73;15.82;;;;;;;8.07;64.76;100276.81;4137248;28;20030;-71
2024/02/28 07:37:47;;;;;;;28.90;16.50;;;;;;;7.97;65.20;100284.69;4136751;28;20045;-70
2024/02/28 07:39:47;;;;;;;23.55;15.48;;;;;;;8.03;65.21;100291.34;4136536;28;20479;-69
2024/02/28 07:41:48;;;;;;;23.80;15.93;;;;;;;8.02;65.14;100293.16;4135666;28;20026;-71
2024/02/28 07:43:49;;;;;;;22.95;14.68;;;;;;;7.95;65.41;100297.28;4137388;28;20065;-71
2024/02/28 07:45:50;;;;;;;;;;;;;;;8.09;65.02;100291.69;4140121;28;20115;-70
2024/02/28 07:47:50;;;;;;;22.83;15.43;;;;;;;8.16;64.57;100291.22;4141123;28;20226;-71
2024/02/28 07:49:51;;;;;;;27.05;17.27;;;;;;;8.05;64.90;100305.34;4140446;28;20065;-71
2024/02/28 07:51:51;;;;;;;;;;;;;;;8.10;65.01;100311.19;4141715;28;20018;-71
2024/02/28 07:53:52;;;;;;;25.80;16.20;;;;;;;8.01;64.86;100309.25;4155305;28;19960;-70
2024/02/28 07:55:52;;;;;;;26.15;15.45;;;;;;;8.14;64.64;100314.44;4153958;28;20018;-70
2024/02/28 07:57:54;;;;;;;25.00;15.90;;;;;;;8.06;64.80;100315.91;4154619;28;20132;-71
2024/02/28 07:59:54;;;;;;;;;;;;;;;8.26;64.19;100311.63;4153297;28;20390;-70
2024/02/28 08:01:55;;;;;;;29.20;14.73;;;;;;;8.07;64.68;100314.06;4153478;28;19916;-71
2024/02/28 08:03:55;;;;;;;24.30;15.35;;;;;;;7.99;64.95;100317.34;4166449;28;20044;-70
2024/02/28 08:05:56;;;;;;;21.90;14.60;;;;;;;8.21;64.45;100319.16;4157355;28;20576;-70
2024/02/28 08:07:56;;;;;;;21.70;14.65;;;;;;;8.34;64.17;100320.81;4150769;28;20095;-71
2024/02/28 08:09:57;;;;;;;25.33;16.07;;;;;;;8.22;64.27;100322.66;4150730;28;20080;-70
2024/02/28 08:11:58;;;;;;;23.65;14.98;;;;;;;8.18;64.49;100329.19;4152604;28;20033;-71
2024/02/28 08:13:59;;;;;;;19.45;13.20;;;;;;;8.30;64.02;100325.56;4152356;28;20018;-71
2024/02/28 08:15:59;;;;;;;21.52;13.45;;;;;;;8.22;64.11;100333.31;4156020;28;20045;-71
2024/02/28 08:18:00;;;;;;;20.77;14.00;;;;;;;8.31;63.81;100327.25;4158663;28;20030;-70
2024/02/28 08:20:00;;;;;;;22.20;13.82;;;;;;;8.20;63.96;100333.44;4156342;28;20037;-70
2024/02/28 08:22:01;;;;;;;18.80;12.73;;;;;;;8.21;63.83;100331.63;4154071;28;20060;-71
2024/02/28 08:24:04;;;;;;;;;;;;;;;8.21;63.36;100327.16;4153605;28;20038;-70
2024/02/28 08:26:04;;;;;;;17.48;12.38;;;;;;;8.32;63.33;100339.59;4153325;28;19913;-71
2024/02/28 08:28:06;;;;;;;20.93;13.93;;;;;;;8.28;63.55;100332.81;4153422;28;20051;-71
2024/02/28 08:30:07;;;;;;;22.17;14.90;;;;;;;8.28;63.63;100333.69;4151763;28;20787;-70
2024/02/28 08:32:07;;;;;;;21.27;14.27;;;;;;;8.33;63.49;100340.44;4150066;28;20026;-72
2024/02/28 08:34:07;;;;;;;20.73;13.60;;;;;;;8.21;63.50;100336.94;4151764;28;20030;-70
2024/02/28 08:36:08;;;;;;;19.80;14.23;;;;;;;8.36;63.34;100329.53;4151566;28;20030;-71
2024/02/28 08:38:08;;;;;;;23.40;14.55;;;;;;;8.36;63.40;100335.72;4150746;28;20037;-70
2024/02/28 08:40:09;;;;;;;22.52;14.38;;;;;;;8.26;63.58;100329.44;4151880;28;20026;-70
2024/02/28 08:42:10;;;;;;;23.75;13.35;;;;;;;8.33;63.40;100335.97;4151419;28;20065;-71
2024/02/28 08:44:11;;;;;;;21.92;13.80;;;;;;;8.21;63.73;100339.59;4150337;28;20025;-70
2024/02/28 08:46:17;;;;;;;22.25;14.90;;;;;;;8.39;63.32;100340.78;4150136;28;20026;-71
2024/02/28 08:48:18;;;;;;;21.83;14.32;;;;;;;8.45;63.26;100342.13;4149117;28;20062;-71
2024/02/28 08:50:18;;;;;;;20.73;13.73;;;;;;;8.56;62.92;100341.28;4147742;28;20057;-71
2024/02/28 08:52:19;;;;;;;19.73;12.88;;;;;;;8.58;62.65;100340.19;4151072;28;20030;-70
2024/02/28 08:54:20;;;;;;;;;;;;;;;8.61;61.93;100343.56;4149232;28;20038;-72
2024/02/28 08:56:20;;;;;;;20.20;12.60;;;;;;;8.46;62.53;100350.94;4149918;28;19916;-71
2024/02/28 08:58:21;;;;;;;19.40;13.05;;;;;;;8.37;62.49;100353.38;4154312;28;20026;-70
2024/02/28 09:00:21;;;;;;;17.27;10.75;;;;;;;8.65;62.00;100351.19;4160246;28;20038;-70
2024/02/28 09:02:22;;;;;;;19.85;12.73;;;;;;;8.56;62.15;100350.13;4147233;28;20030;-70
2024/02/28 09:04:23;;;;;;;19.95;11.48;;;;;;;8.51;62.14;100352.31;4148764;28;20097;-70
2024/02/28 09:06:23;;;;;;;16.98;12.00;;;;;;;8.43;62.30;100352.91;4148736;28;20044;-70
2024/02/28 09:08:24;;;;;;;16.52;11.00;;;;;;;8.65;61.78;100347.69;4148671;28;20037;-70
2024/02/28 09:10:25;;;;;;;18.13;11.77;;;;;;;8.71;61.45;100344.50;4149372;28;20034;-70
2024/02/28 09:12:26;;;;;;;16.48;11.15;;;;;;;8.62;61.72;100345.25;4148429;28;20029;-71
2024/02/28 09:14:26;;;;;;;16.95;11.07;;;;;;;8.56;61.87;100343.94;4148747;28;20398;-69
2024/02/28 09:16:26;;;;;;;18.10;11.30;;;;;;;8.62;61.49;100346.13;4149174;28;20044;-71
2024/02/28 09:18:27;;;;;;;17.43;11.37;;;;;;;8.70;61.36;100349.00;4154028;28;20034;-70